Time;durP1;ratioP1;P1;durP2;ratioP2;P2;SDS_P1;SDS_P2;PMS_P1;PMS_P2;Temp;Humidity;BMP_temperature;BMP_pressure;BME280_temperature;BME280_humidity;BME280_pressure;Samples;Min_cycle;Max_cycle;Signal;HPM_P1;HPM_P2
2022/10/05 00:00:25;;;;;;;;;;;;;;;;;;5012882;28;783;-75
2022/10/05 00:02:52;;;;;;;;;;;;;;;;;;5011079;28;1303;-74
2022/10/05 00:05:23;;;;;;;;;;;;;;;;;;5012592;28;1064;-75
2022/10/05 00:07:51;;;;;;;;;;;;;;;;;;5012747;28;1076;-74
2022/10/05 00:10:18;;;;;;;;;;;;;;;;;;5012645;28;1068;-74
2022/10/05 00:12:44;;;;;;;;;;;;;;;;;;5010432;28;1421;-74
2022/10/05 00:15:11;;;;;;;;;;;;;;;;;;5012473;28;1954;-75
2022/10/05 00:17:38;;;;;;;;;;;;;;;;;;5012587;28;1140;-76
2022/10/05 00:20:11;;;;;;;;;;;;;;;;;;5012701;28;1083;-75
2022/10/05 00:22:37;;;;;;;;;;;;;;;;;;5012176;28;1429;-74
2022/10/05 00:25:11;;;;;;;;;;;;;;;;;;5011603;28;1287;-75
2022/10/05 00:27:37;;;;;;;;;;;;;;;;;;5012560;28;933;-75
2022/10/05 00:30:10;;;;;;;;;;;;;;;;;;5012580;28;1056;-75
2022/10/05 00:32:36;;;;;;;;;;;;;;;;;;5012047;28;1412;-75
2022/10/05 00:35:03;;;;;;;;;;;;;;;;;;5012231;28;1968;-75
2022/10/05 00:37:29;;;;;;;;;;;;;;;;;;5010864;28;1157;-75
2022/10/05 00:39:56;;;;;;;;;;;;;;;;;;5012263;28;890;-75
2022/10/05 00:42:28;;;;;;;;;;;;;;;;;;5011730;28;1400;-75
2022/10/05 00:44:54;;;;;;;;;;;;;;;;;;5010824;28;1108;-75
2022/10/05 00:47:24;;;;;;;;;;;;;;;;;;5010681;28;1238;-75
2022/10/05 00:49:58;;;;;;;;;;;;;;;;;;5011733;28;1008;-75
2022/10/05 00:52:26;;;;;;;;;;;;;;;;;;5010118;28;1382;-75
2022/10/05 00:54:54;;;;;;;;;;;;;;;;;;5010645;28;1922;-75
2022/10/05 00:57:28;;;;;;;;;;;;;;;;;;5010405;28;1363;-75
2022/10/05 00:59:57;;;;;;;;;;;;;;;;;;5011928;28;776;-74
2022/10/05 01:02:25;;;;;;;;;;;;;;;;;;5009915;28;1327;-75
2022/10/05 01:04:52;;;;;;;;;;;;;;;;;;5010558;28;1403;-75
2022/10/05 01:07:22;;;;;;;;;;;;;;;;;;5011751;28;1053;-75
2022/10/05 01:09:49;;;;;;;;;;;;;;;;;;5011871;28;1084;-75
2022/10/05 01:12:17;;;;;;;;;;;;;;;;;;5009999;28;1431;-75
2022/10/05 01:14:46;;;;;;;;;;;;;;;;;;5010544;28;2021;-75
2022/10/05 01:17:15;;;;;;;;;;;;;;;;;;5010356;28;1049;-75
2022/10/05 01:19:47;;;;;;;;;;;;;;;;;;5010264;28;1683;-75
2022/10/05 01:22:14;;;;;;;;;;;;;;;;;;5009865;28;1348;-74
2022/10/05 01:24:43;;;;;;;;;;;;;;;;;;5010434;28;1280;-75
2022/10/05 01:27:11;;;;;;;;;;;;;;;;;;5010165;28;1176;-75
2022/10/05 01:29:43;;;;;;;;;;;;;;;;;;5010375;28;1338;-75
2022/10/05 01:32:10;;;;;;;;;;;;;;;;;;5009839;28;1313;-75
2022/10/05 01:34:38;;;;;;;;;;;;;;;;;;5010257;28;1906;-75
2022/10/05 01:37:06;;;;;;;;;;;;;;;;;;5010161;28;1136;-75
2022/10/05 01:39:34;;;;;;;;;;;;;;;;;;5011562;28;813;-75
2022/10/05 01:42:01;;;;;;;;;;;;;;;;;;5009532;28;1460;-75
2022/10/05 01:44:28;;;;;;;;;;;;;;;;;;5010009;28;1307;-74
2022/10/05 01:46:56;;;;;;;;;;;;;;;;;;5011497;28;934;-75
2022/10/05 01:49:28;;;;;;;;;;;;;;;;;;5009861;28;1164;-75
2022/10/05 01:51:57;;;;;;;;;;;;;;;;;;5009785;28;1361;-75
2022/10/05 01:54:27;;;;;;;;;;;;;;;;;;5009973;28;1914;-75
2022/10/05 01:56:55;;;;;;;;;;;;;;;;;;5010030;28;1311;-75
2022/10/05 01:59:24;;;;;;;;;;;;;;;;;;5010158;28;2232;-75
2022/10/05 02:01:52;;;;;;;;;;;;;;;;;;5009348;28;1344;-75
2022/10/05 02:04:21;;;;;;;;;;;;;;;;;;5011067;28;875;-75
2022/10/05 02:06:47;;;;;;;;;;;;;;;;;;5010072;28;1222;-75
2022/10/05 02:09:14;;;;;;;;;;;;;;;;;;5009963;28;1420;-75
2022/10/05 02:11:40;;;;;;;;;;;;;;;;;;5009669;28;1529;-75
2022/10/05 02:14:07;;;;;;;;;;;;;;;;;;5009713;28;1910;-75
2022/10/05 02:16:34;;;;;;;;;;;;;;;;;;5010083;28;1371;-75
2022/10/05 02:19:02;;;;;;;;;;;;;;;;;;5009871;28;1203;-74
2022/10/05 02:21:29;;;;;;;;;;;;;;;;;;5009169;28;1361;-74
2022/10/05 02:23:56;;;;;;;;;;;;;;;;;;5010278;28;1292;-75
2022/10/05 02:26:22;;;;;;;;;;;;;;;;;;5011685;28;771;-74
2022/10/05 02:28:50;;;;;;;;;;;;;;;;;;5010787;28;1429;-74
2022/10/05 02:31:17;;;;;;;;;;;;;;;;;;5009868;28;1360;-74
2022/10/05 02:33:43;;;;;;;;;;;;;;;;;;5010375;28;1914;-75
2022/10/05 02:36:14;;;;;;;;;;;;;;;;;;5011492;28;1182;-74
2022/10/05 02:38:46;;;;;;;;;;;;;;;;;;5013276;28;1220;-74
2022/10/05 02:41:14;;;;;;;;;;;;;;;;;;5013255;28;1486;-74
2022/10/05 02:43:42;;;;;;;;;;;;;;;;;;5012963;28;1384;-74
2022/10/05 02:46:12;;;;;;;;;;;;;;;;;;5013022;28;1275;-74
2022/10/05 02:48:40;;;;;;;;;;;;;;;;;;5012950;28;1028;-74
2022/10/05 02:51:09;;;;;;;;;;;;;;;;;;5012780;28;1594;-74
2022/10/05 02:53:37;;;;;;;;;;;;;;;;;;5014044;28;854;-75
2022/10/05 02:56:07;;;;;;;;;;;;;;;;;;5012815;28;1922;-74
2022/10/05 02:58:35;;;;;;;;;;;;;;;;;;5012920;28;1317;-74
2022/10/05 03:01:03;;;;;;;;;;;;;;;;;;5013951;28;1413;-74
2022/10/05 03:03:31;;;;;;;;;;;;;;;;;;5012337;28;1338;-74
2022/10/05 03:05:58;;;;;;;;;;;;;;;;;;5012863;28;1247;-74
2022/10/05 03:08:26;;;;;;;;;;;;;;;;;;5012516;28;1372;-75
2022/10/05 03:10:56;;;;;;;;;;;;;;;;;;5012915;28;1602;-75
2022/10/05 03:13:25;;;;;;;;;;;;;;;;;;5012353;28;1534;-75
2022/10/05 03:15:54;;;;;;;;;;;;;;;;;;5012778;28;1926;-74
2022/10/05 03:18:24;;;;;;;;;;;;;;;;;;5012577;28;1393;-75
2022/10/05 03:20:52;;;;;;;;;;;;;;;;;;5012347;28;1388;-75
2022/10/05 03:23:20;;;;;;;;;;;;;;;;;;5012091;28;1438;-75
2022/10/05 03:25:52;;;;;;;;;;;;;;;;;;5012474;28;1198;-75
2022/10/05 03:28:20;;;;;;;;;;;;;;;;;;5012370;28;1200;-74
2022/10/05 03:30:51;;;;;;;;;;;;;;;;;;5012247;28;1299;-74
2022/10/05 03:33:20;;;;;;;;;;;;;;;;;;5012986;28;1301;-75
2022/10/05 03:35:48;;;;;;;;;;;;;;;;;;5012175;28;1992;-75
2022/10/05 03:38:16;;;;;;;;;;;;;;;;;;5011916;28;1246;-76
2022/10/05 03:40:44;;;;;;;;;;;;;;;;;;5011812;28;1597;-75
2022/10/05 03:43:23;;;;;;;;;;;;;;;;;;5011620;28;1377;-74
2022/10/05 03:45:53;;;;;;;;;;;;;;;;;;5011896;28;1289;-75
2022/10/05 03:48:19;;;;;;;;;;;;;;;;;;5011166;28;857;-75
2022/10/05 03:50:50;;;;;;;;;;;;;;;;;;5013075;28;819;-75
2022/10/05 03:53:18;;;;;;;;;;;;;;;;;;5011634;28;1407;-74
2022/10/05 03:55:45;;;;;;;;;;;;;;;;;;5011487;28;1922;-75
2022/10/05 03:58:13;;;;;;;;;;;;;;;;;;5012070;28;1172;-74
2022/10/05 04:00:39;;;;;;;;;;;;;;;;;;5011693;28;1340;-75
2022/10/05 04:03:10;;;;;;;;;;;;;;;;;;5011081;28;1297;-75
2022/10/05 04:05:38;;;;;;;;;;;;;;;;;;5011684;28;1452;-75
2022/10/05 04:08:04;;;;;;;;;;;;;;;;;;5011544;28;1420;-75
2022/10/05 04:10:33;;;;;;;;;;;;;;;;;;5011548;28;1300;-75
2022/10/05 04:13:01;;;;;;;;;;;;;;;;;;5010935;28;1440;-75
2022/10/05 04:15:29;;;;;;;;;;;;;;;;;;5011205;28;1922;-75
2022/10/05 04:17:56;;;;;;;;;;;;;;;;;;5011448;28;1346;-75
2022/10/05 04:20:24;;;;;;;;;;;;;;;;;;5011352;28;1428;-76
2022/10/05 04:22:53;;;;;;;;;;;;;;;;;;5010917;28;1435;-76
2022/10/05 04:25:20;;;;;;;;;;;;;;;;;;5011220;28;1340;-75
2022/10/05 04:27:47;;;;;;;;;;;;;;;;;;5011207;28;1482;-75
2022/10/05 04:30:14;;;;;;;;;;;;;;;;;;5011082;28;1256;-75
2022/10/05 04:32:42;;;;;;;;;;;;;;;;;;5010719;28;1353;-74
2022/10/05 04:35:14;;;;;;;;;;;;;;;;;;5011042;28;1914;-75
2022/10/05 04:37:45;;;;;;;;;;;;;;;;;;5006793;28;1499;-75
2022/10/05 04:40:15;;;;;;;;;;;;;;;;;;5017212;28;1350;-76
2022/10/05 04:42:44;;;;;;;;;;;;;;;;;;5001832;28;1451;-75
2022/10/05 04:45:13;;;;;;;;;;;;;;;;;;5018539;28;1391;-75
2022/10/05 04:47:45;;;;;;;;;;;;;;;;;;5019214;28;1513;-76
2022/10/05 04:50:15;;;;;;;;;;;;;;;;;;5020251;28;1187;-75
2022/10/05 04:52:57;;;;;;;;;;;;;;;;;;5027814;28;1615;-75
2022/10/05 04:55:27;;;;;;;;;;;;;;;;;;5001611;28;1923;-76
2022/10/05 04:57:55;;;;;;;;;;;;;;;;;;5016973;28;1404;-75
2022/10/05 05:00:22;;;;;;;;;;;;;;;;;;5000292;28;1538;-76
2022/10/05 05:03:04;;;;;;;;;;;;;;;;;;5019013;28;1807;-76
2022/10/05 05:05:34;;;;;;;;;;;;;;;;;;5008406;28;1430;-76
2022/10/05 05:08:05;;;;;;;;;;;;;;;;;;5022680;28;1377;-76
2022/10/05 05:10:50;;;;;;;;;;;;;;;;;;5016590;28;1205;-75
2022/10/05 05:13:31;;;;;;;;;;;;;;;;;;5007640;28;1512;-75
2022/10/05 05:15:58;;;;;;;;;;;;;;;;;;5006357;28;1918;-75
2022/10/05 05:18:38;;;;;;;;;;;;;;;;;;5009081;28;1419;-75
2022/10/05 05:21:05;;;;;;;;;;;;;;;;;;5016063;28;1414;-76
2022/10/05 05:23:36;;;;;;;;;;;;;;;;;;5008190;28;1309;-75
2022/10/05 05:26:05;;;;;;;;;;;;;;;;;;5008284;28;1193;-76
2022/10/05 05:28:33;;;;;;;;;;;;;;;;;;5007903;28;1420;-75
2022/10/05 05:31:00;;;;;;;;;;;;;;;;;;5015552;28;1542;-73
2022/10/05 05:33:27;;;;;;;;;;;;;;;;;;5008539;28;1411;-75
2022/10/05 05:36:09;;;;;;;;;;;;;;;;;;5016181;28;1910;-76
2022/10/05 05:38:39;;;;;;;;;;;;;;;;;;5037762;23;2027;-74
2022/10/05 05:41:10;;;;;;;;;;;;;;;;;;5020232;28;1607;-76
2022/10/05 05:43:44;;;;;;;;;;;;;;;;;;5018024;28;1451;-75
2022/10/05 05:46:12;;;;;;;;;;;;;;;;;;5047955;28;1429;-76
2022/10/05 05:48:40;;;;;;;;;;;;;;;;;;5026297;28;1456;-76
2022/10/05 05:51:09;;;;;;;;;;;;;;;;;;5027072;28;1406;-75
2022/10/05 05:53:39;;;;;;;;;;;;;;;;;;5029543;28;1323;-75
2022/10/05 05:56:06;;;;;;;;;;;;;;;;;;5029789;28;1914;-76
2022/10/05 05:58:34;;;;;;;;;;;;;;;;;;5028715;28;1412;-76
2022/10/05 06:01:01;;;;;;;;;;;;;;;;;;5028457;28;1281;-75
2022/10/05 06:03:28;;;;;;;;;;;;;;;;;;5030860;28;926;-76
2022/10/05 06:05:56;;;;;;;;;;;;;;;;;;5030293;28;1659;-75
2022/10/05 06:08:25;;;;;;;;;;;;;;;;;;5029956;28;1438;-76
2022/10/05 06:10:59;;;;;;;;;;;;;;;;;;5030582;28;1273;-76
2022/10/05 06:13:26;;;;;;;;;;;;;;;;;;5033442;28;1214;-75
2022/10/05 06:15:54;;;;;;;;;;;;;;;;;;5033483;28;1910;-76
2022/10/05 06:18:20;;;;;;;;;;;;;;;;;;5033368;28;1326;-75
2022/10/05 06:20:49;;;;;;;;;;;;;;;;;;5033233;28;1449;-74
2022/10/05 06:23:16;;;;;;;;;;;;;;;;;;5033276;28;1291;-76
2022/10/05 06:25:44;;;;;;;;;;;;;;;;;;5033236;28;1168;-76
2022/10/05 06:28:12;;;;;;;;;;;;;;;;;;5033195;28;1429;-75
2022/10/05 06:30:45;;;;;;;;;;;;;;;;;;5033174;28;1456;-76
2022/10/05 06:33:16;;;;;;;;;;;;;;;;;;5032935;28;1321;-76
2022/10/05 06:35:46;;;;;;;;;;;;;;;;;;5033122;28;1985;-76
2022/10/05 06:38:16;;;;;;;;;;;;;;;;;;5032924;28;1412;-76
2022/10/05 06:40:50;;;;;;;;;;;;;;;;;;5034161;28;1095;-76
2022/10/05 06:43:33;;;;;;;;;;;;;;;;;;5032713;28;1554;-76
2022/10/05 06:46:19;;;;;;;;;;;;;;;;;;5034599;28;726;-77
2022/10/05 06:49:04;;;;;;;;;;;;;;;;;;5032665;28;1402;-75
2022/10/05 06:51:55;;;;;;;;;;;;;;;;;;5032464;28;1455;-76
2022/10/05 06:54:39;;;;;;;;;;;;;;;;;;5032710;28;1406;-76
2022/10/05 06:57:07;;;;;;;;;;;;;;;;;;5032481;28;1977;-75
2022/10/05 06:59:36;;;;;;;;;;;;;;;;;;5032461;28;1328;-76
2022/10/05 07:02:05;;;;;;;;;;;;;;;;;;5032278;28;1349;-76
2022/10/05 07:04:36;;;;;;;;;;;;;;;;;;5032340;28;1295;-76
2022/10/05 07:07:02;;;;;;;;;;;;;;;;;;5032472;28;1329;-75
2022/10/05 07:09:32;;;;;;;;;;;;;;;;;;5032142;28;1431;-76
2022/10/05 07:12:02;;;;;;;;;;;;;;;;;;5032115;28;1164;-75
2022/10/05 07:14:38;;;;;;;;;;;;;;;;;;5032462;28;1352;-75
2022/10/05 07:17:15;;;;;;;;;;;;;;;;;;5032404;28;1981;-76
2022/10/05 07:19:44;;;;;;;;;;;;;;;;;;5032301;28;1492;-76
2022/10/05 07:22:19;;;;;;;;;;;;;;;;;;5031840;28;1422;-77
2022/10/05 07:24:47;;;;;;;;;;;;;;;;;;5032456;28;1285;-76
2022/10/05 07:27:15;;;;;;;;;;;;;;;;;;5031888;28;1344;-76
2022/10/05 07:29:45;;;;;;;;;;;;;;;;;;5031964;28;1160;-76
2022/10/05 07:32:14;;;;;;;;;;;;;;;;;;5030573;28;1481;-75
2022/10/05 07:34:47;;;;;;;;;;;;;;;;;;5030482;28;1330;-75
2022/10/05 07:40:00;;;;;;;;;;;;;;;;;;5034074;28;859;-75
2022/10/05 07:42:31;;;;;;;;;;;;;;;;;;5031597;28;1339;-76
2022/10/05 07:45:00;;;;;;;;;;;;;;;;;;5032007;28;1483;-74
2022/10/05 07:47:29;;;;;;;;;;;;;;;;;;5031767;28;1521;-76
2022/10/05 07:49:58;;;;;;;;;;;;;;;;;;5031939;28;1332;-76
2022/10/05 07:52:25;;;;;;;;;;;;;;;;;;5031334;28;1408;-76
2022/10/05 07:54:56;;;;;;;;;;;;;;;;;;5028474;28;1552;-75
2022/10/05 07:57:24;;;;;;;;;;;;;;;;;;5048006;28;1914;-76
2022/10/05 07:59:53;;;;;;;;;;;;;;;;;;5048307;28;1231;-74
2022/10/05 08:02:25;;;;;;;;;;;;;;;;;;5047898;28;1387;-75
2022/10/05 08:04:53;;;;;;;;;;;;;;;;;;5032687;28;1064;-74
2022/10/05 08:07:19;;;;;;;;;;;;;;;;;;5048337;28;1407;-75
2022/10/05 08:09:46;;;;;;;;;;;;;;;;;;5032848;28;949;-75
2022/10/05 08:12:19;;;;;;;;;;;;;;;;;;5032421;28;941;-75
2022/10/05 08:14:47;;;;;;;;;;;;;;;;;;5032743;28;1399;-75
2022/10/05 08:17:17;;;;;;;;;;;;;;;;;;5032703;28;1919;-76
2022/10/05 08:19:46;;;;;;;;;;;;;;;;;;5032606;28;827;-75
2022/10/05 08:22:13;;;;;;;;;;;;;;;;;;5032271;28;1005;-74
2022/10/05 08:24:41;;;;;;;;;;;;;;;;;;5032295;28;1067;-74
2022/10/05 08:27:09;;;;;;;;;;;;;;;;;;5032589;28;1319;-74
2022/10/05 08:29:37;;;;;;;;;;;;;;;;;;5032638;28;945;-75
2022/10/05 08:32:04;;;;;;;;;;;;;;;;;;5032190;28;1076;-76
2022/10/05 08:34:30;;;;;;;;;;;;;;;;;;5031794;28;897;-76
2022/10/05 08:37:00;;;;;;;;;;;;;;;;;;5032623;28;1918;-76
2022/10/05 08:39:28;;;;;;;;;;;;;;;;;;5032098;28;976;-76
2022/10/05 08:41:59;;;;;;;;;;;;;;;;;;5032966;28;1108;-77
2022/10/05 08:44:43;;;;;;;;;;;;;;;;;;5035237;28;1048;-77
2022/10/05 08:47:18;;;;;;;;;;;;;;;;;;5033789;28;1330;-75
2022/10/05 08:50:03;;;;;;;;;;;;;;;;;;5031771;28;1095;-76
2022/10/05 08:52:30;;;;;;;;;;;;;;;;;;5029687;28;1064;-75
2022/10/05 08:55:17;;;;;;;;;;;;;;;;;;5030877;28;917;-75
2022/10/05 08:57:50;;;;;;;;;;;;;;;;;;5046375;28;1917;-76
2022/10/05 09:00:17;;;;;;;;;;;;;;;;;;5031780;28;1114;-75
2022/10/05 09:02:58;;;;;;;;;;;;;;;;;;5031645;28;1056;-76
2022/10/05 09:05:28;;;;;;;;;;;;;;;;;;5031704;28;1012;-76
2022/10/05 09:08:11;;;;;;;;;;;;;;;;;;5031771;28;1315;-76
2022/10/05 09:10:52;;;;;;;;;;;;;;;;;;5031584;28;1067;-76
2022/10/05 09:13:26;;;;;;;;;;;;;;;;;;5031508;28;1095;-76
2022/10/05 09:16:01;;;;;;;;;;;;;;;;;;5031365;28;1902;-76
2022/10/05 09:18:36;;;;;;;;;;;;;;;;;;5031759;28;1415;-73
2022/10/05 09:21:02;;;;;;;;;;;;;;;;;;5046666;28;1072;-75
2022/10/05 09:23:37;;;;;;;;;;;;;;;;;;5031152;28;718;-76
2022/10/05 09:26:07;;;;;;;;;;;;;;;;;;5031534;28;1076;-75
2022/10/05 09:28:34;;;;;;;;;;;;;;;;;;5031160;28;1304;-75
2022/10/05 09:31:16;;;;;;;;;;;;;;;;;;5031549;28;1071;-75
2022/10/05 09:34:00;;;;;;;;;;;;;;;;;;5031370;28;1004;-75
2022/10/05 09:36:54;;;;;;;;;;;;;;;;;;5031738;28;1976;-76
2022/10/05 09:39:24;;;;;;;;;;;;;;;;;;5030427;28;1328;-76
2022/10/05 09:42:24;;;;;;;;;;;;;;;;;;5029343;28;1131;-75
2022/10/05 09:44:56;;;;;;;;;;;;;;;;;;5031604;28;779;-75
2022/10/05 09:47:33;;;;;;;;;;;;;;;;;;5035010;28;1390;-75
2022/10/05 09:50:17;;;;;;;;;;;;;;;;;;5032006;28;1488;-75
2022/10/05 09:52:48;;;;;;;;;;;;;;;;;;5049434;28;1227;-74
2022/10/05 09:55:24;;;;;;;;;;;;;;;;;;5050782;28;1156;-74
2022/10/05 09:57:57;;;;;;;;;;;;;;;;;;5050285;28;1987;-76
2022/10/05 10:00:25;;;;;;;;;;;;;;;;;;5023113;28;1762;-75
2022/10/05 10:03:05;;;;;;;;;;;;;;;;;;5027271;28;1226;-76
2022/10/05 10:05:38;;;;;;;;;;;;;;;;;;5033344;28;1404;-78
2022/10/05 10:08:14;;;;;;;;;;;;;;;;;;5019782;28;1431;-74
2022/10/05 10:10:52;;;;;;;;;;;;;;;;;;5026388;28;1392;-75
2022/10/05 10:13:29;;;;;;;;;;;;;;;;;;5022441;28;1404;-77
2022/10/05 10:16:00;;;;;;;;;;;;;;;;;;5021914;28;1472;-76
2022/10/05 10:18:33;;;;;;;;;;;;;;;;;;5032175;28;1997;-75
2022/10/05 10:21:02;;;;;;;;;;;;;;;;;;5031799;28;1040;-75
2022/10/05 10:23:33;;;;;;;;;;;;;;;;;;5031408;28;954;-76
2022/10/05 10:26:05;;;;;;;;;;;;;;;;;;5029528;28;1541;-78
2022/10/05 10:28:59;;;;;;;;;;;;;;;;;;5023106;28;1416;-77
2022/10/05 10:31:37;;;;;;;;;;;;;;;;;;4995577;28;1069;-77
2022/10/05 10:34:14;;;;;;;;;;;;;;;;;;5021139;28;1605;-77
2022/10/05 10:36:46;;;;;;;;;;;;;;;;;;5023879;28;1971;-77
2022/10/05 10:39:12;;;;;;;;;;;;;;;;;;5046697;28;1326;-77
2022/10/05 10:41:55;;;;;;;;;;;;;;;;;;5033858;28;1468;-76
2022/10/05 10:44:40;;;;;;;;;;;;;;;;;;5023417;28;1194;-77
2022/10/05 10:47:20;;;;;;;;;;;;;;;;;;5020494;28;1700;-77
2022/10/05 10:49:51;;;;;;;;;;;;;;;;;;5026886;28;1167;-75
2022/10/05 10:52:20;;;;;;;;;;;;;;;;;;5031303;28;1067;-75
2022/10/05 10:54:51;;;;;;;;;;;;;;;;;;5030472;28;850;-75
2022/10/05 10:57:19;;;;;;;;;;;;;;;;;;5039843;28;1922;-75
2022/10/05 10:59:55;;;;;;;;;;;;;;;;;;5024158;28;1542;-75
2022/10/05 11:02:26;;;;;;;;;;;;;;;;;;5012663;28;1589;-75
2022/10/05 11:05:00;;;;;;;;;;;;;;;;;;5013344;28;800;-75
2022/10/05 11:07:45;;;;;;;;;;;;;;;;;;5012950;28;1326;-76
2022/10/05 11:10:17;;;;;;;;;;;;;;;;;;5013354;28;857;-76
2022/10/05 11:13:02;;;;;;;;;;;;;;;;;;5011389;28;1120;-74
2022/10/05 11:15:42;;;;;;;;;;;;;;;;;;5013187;28;1521;-75
2022/10/05 11:18:15;;;;;;;;;;;;;;;;;;5025902;28;1911;-75
2022/10/05 11:20:50;;;;;;;;;;;;;;;;;;5012126;28;856;-75
2022/10/05 11:23:35;;;;;;;;;;;;;;;;;;5012926;28;1068;-76
2022/10/05 11:26:09;;;;;;;;;;;;;;;;;;5012933;28;1075;-76
2022/10/05 11:28:54;;;;;;;;;;;;;;;;;;5014799;28;1415;-76
2022/10/05 11:31:25;;;;;;;;;;;;;;;;;;5036086;28;1272;-75
2022/10/05 11:34:09;;;;;;;;;;;;;;;;;;5012498;28;1080;-75
2022/10/05 11:36:49;;;;;;;;;;;;;;;;;;5019752;28;1973;-76
2022/10/05 11:39:21;;;;;;;;;;;;;;;;;;5013221;28;1382;-75
2022/10/05 11:41:55;;;;;;;;;;;;;;;;;;5022932;28;1461;-75
2022/10/05 11:44:30;;;;;;;;;;;;;;;;;;5019761;28;1582;-75
2022/10/05 11:46:58;;;;;;;;;;;;;;;;;;5053177;22;1987;-75
2022/10/05 11:49:26;;;;;;;;;;;;;;;;;;5065204;28;1416;-75
2022/10/05 11:51:54;;;;;;;;;;;;;;;;;;5055908;28;1364;-77
2022/10/05 11:54:34;;;;;;;;;;;;;;;;;;5069197;28;1503;-78
2022/10/05 11:57:01;;;;;;;;;;;;;;;;;;5059019;28;1916;-77
2022/10/05 11:59:30;;;;;;;;;;;;;;;;;;5069278;28;1505;-76
2022/10/05 12:01:57;;;;;;;;;;;;;;;;;;5064553;28;1712;-76
2022/10/05 12:04:25;;;;;;;;;;;;;;;;;;5066884;28;1357;-75
2022/10/05 12:07:04;;;;;;;;;;;;;;;;;;5059633;28;1392;-76
2022/10/05 12:09:37;;;;;;;;;;;;;;;;;;5052628;28;1491;-75
2022/10/05 12:12:06;;;;;;;;;;;;;;;;;;5053978;28;1716;-75
2022/10/05 12:14:37;;;;;;;;;;;;;;;;;;5064180;28;1373;-75
2022/10/05 12:17:04;;;;;;;;;;;;;;;;;;5062205;28;1914;-75
2022/10/05 12:19:32;;;;;;;;;;;;;;;;;;5060233;28;1695;-75
2022/10/05 12:22:02;;;;;;;;;;;;;;;;;;5063523;28;1849;-76
2022/10/05 12:24:30;;;;;;;;;;;;;;;;;;5071353;28;1148;-75
2022/10/05 12:26:57;;;;;;;;;;;;;;;;;;5071107;28;1375;-76
2022/10/05 12:29:25;;;;;;;;;;;;;;;;;;5071370;28;1080;-77
2022/10/05 12:31:54;;;;;;;;;;;;;;;;;;5069396;28;1162;-74
2022/10/05 12:34:24;;;;;;;;;;;;;;;;;;5071003;28;1086;-75
2022/10/05 12:36:51;;;;;;;;;;;;;;;;;;5069378;28;1922;-75
2022/10/05 12:39:21;;;;;;;;;;;;;;;;;;5071236;28;1079;-76
2022/10/05 12:41:48;;;;;;;;;;;;;;;;;;5070525;28;1161;-74
2022/10/05 12:44:16;;;;;;;;;;;;;;;;;;5070632;28;889;-74
2022/10/05 12:46:44;;;;;;;;;;;;;;;;;;5069457;28;1412;-74
2022/10/05 12:49:18;;;;;;;;;;;;;;;;;;5070747;28;1051;-74
2022/10/05 12:51:46;;;;;;;;;;;;;;;;;;5070702;28;673;-75
2022/10/05 12:54:17;;;;;;;;;;;;;;;;;;5062459;28;1443;-76
2022/10/05 12:56:43;;;;;;;;;;;;;;;;;;5055335;28;1479;-75
2022/10/05 12:59:13;;;;;;;;;;;;;;;;;;5058268;28;1965;-75
2022/10/05 13:01:40;;;;;;;;;;;;;;;;;;5056821;28;1301;-74
2022/10/05 13:04:12;;;;;;;;;;;;;;;;;;5066171;28;1440;-76
2022/10/05 13:06:41;;;;;;;;;;;;;;;;;;5059455;28;1558;-75
2022/10/05 13:09:09;;;;;;;;;;;;;;;;;;5075062;28;1434;-75
2022/10/05 13:11:36;;;;;;;;;;;;;;;;;;5056488;28;1149;-75
2022/10/05 13:14:06;;;;;;;;;;;;;;;;;;5053599;28;1392;-75
2022/10/05 13:16:34;;;;;;;;;;;;;;;;;;5067637;28;2008;-75
2022/10/05 13:19:06;;;;;;;;;;;;;;;;;;5066514;28;1989;-76
2022/10/05 13:21:37;;;;;;;;;;;;;;;;;;5051519;28;1381;-76
2022/10/05 13:24:07;;;;;;;;;;;;;;;;;;5057189;28;1286;-76
2022/10/05 13:26:34;;;;;;;;;;;;;;;;;;5055632;28;1554;-76
2022/10/05 13:29:02;;;;;;;;;;;;;;;;;;5057655;28;1573;-76
2022/10/05 13:31:28;;;;;;;;;;;;;;;;;;5050610;28;1481;-75
2022/10/05 13:33:58;;;;;;;;;;;;;;;;;;5063308;28;1385;-76
2022/10/05 13:36:25;;;;;;;;;;;;;;;;;;5055281;28;1436;-76
2022/10/05 13:38:54;;;;;;;;;;;;;;;;;;5046835;28;1914;-76
2022/10/05 13:41:24;;;;;;;;;;;;;;;;;;5058700;28;1509;-76
2022/10/05 13:43:54;;;;;;;;;;;;;;;;;;5048623;28;1374;-77
2022/10/05 13:46:22;;;;;;;;;;;;;;;;;;5052733;28;1490;-77
2022/10/05 13:48:51;;;;;;;;;;;;;;;;;;5053197;28;1406;-75
2022/10/05 13:51:18;;;;;;;;;;;;;;;;;;5052754;28;1409;-75
2022/10/05 13:53:45;;;;;;;;;;;;;;;;;;5056715;28;1345;-76
2022/10/05 13:56:12;;;;;;;;;;;;;;;;;;5058994;28;1505;-75
2022/10/05 13:58:41;;;;;;;;;;;;;;;;;;5078103;28;1912;-76
2022/10/05 14:01:08;;;;;;;;;;;;;;;;;;5063017;28;1568;-75
2022/10/05 14:03:35;;;;;;;;;;;;;;;;;;5053164;28;1393;-76
2022/10/05 14:06:02;;;;;;;;;;;;;;;;;;5054837;28;1154;-77
2022/10/05 14:08:30;;;;;;;;;;;;;;;;;;5059784;28;1609;-76
2022/10/05 14:10:57;;;;;;;;;;;;;;;;;;5064351;28;1406;-76
2022/10/05 14:13:26;;;;;;;;;;;;;;;;;;5057107;28;1500;-75
2022/10/05 14:16:03;;;;;;;;;;;;;;;;;;5060658;28;1429;-76
2022/10/05 14:18:30;;;;;;;;;;;;;;;;;;5050643;28;1981;-76
2022/10/05 14:20:57;;;;;;;;;;;;;;;;;;5062794;28;1527;-76
2022/10/05 14:23:24;;;;;;;;;;;;;;;;;;5060467;28;1442;-76
2022/10/05 14:25:52;;;;;;;;;;;;;;;;;;5054029;28;1436;-76
2022/10/05 14:28:23;;;;;;;;;;;;;;;;;;5062555;28;1409;-76
2022/10/05 14:30:55;;;;;;;;;;;;;;;;;;5054651;28;1845;-76
2022/10/05 14:33:22;;;;;;;;;;;;;;;;;;5060358;28;1459;-76
2022/10/05 14:35:49;;;;;;;;;;;;;;;;;;5059382;28;1457;-75
2022/10/05 14:38:17;;;;;;;;;;;;;;;;;;5049678;28;1918;-76
2022/10/05 14:40:43;;;;;;;;;;;;;;;;;;5063508;28;1521;-76
2022/10/05 14:43:19;;;;;;;;;;;;;;;;;;5058577;28;1365;-77
2022/10/05 14:45:52;;;;;;;;;;;;;;;;;;5058105;28;1424;-76
2022/10/05 14:48:18;;;;;;;;;;;;;;;;;;5058114;28;1603;-76
2022/10/05 14:50:51;;;;;;;;;;;;;;;;;;5056515;28;975;-76
2022/10/05 14:53:17;;;;;;;;;;;;;;;;;;5066189;28;1460;-76
2022/10/05 14:56:00;;;;;;;;;;;;;;;;;;5059515;28;1445;-77
2022/10/05 14:58:41;;;;;;;;;;;;;;;;;;5051257;28;1975;-76
2022/10/05 15:01:12;;;;;;;;;;;;;;;;;;5055161;28;1425;-76
2022/10/05 15:03:42;;;;;;;;;;;;;;;;;;5064645;28;1553;-76
2022/10/05 15:06:11;;;;;;;;;;;;;;;;;;5062646;28;2159;-78
2022/10/05 15:08:44;;;;;;;;;;;;;;;;;;5054405;28;1112;-77
2022/10/05 15:11:12;;;;;;;;;;;;;;;;;;5059394;28;1223;-77
2022/10/05 15:13:38;;;;;;;;;;;;;;;;;;5064134;28;1222;-77
2022/10/05 15:16:05;;;;;;;;;;;;;;;;;;5062455;28;1314;-77
2022/10/05 15:18:34;;;;;;;;;;;;;;;;;;5066195;28;1979;-77
2022/10/05 15:21:05;;;;;;;;;;;;;;;;;;5062649;28;1254;-77
2022/10/05 15:23:34;;;;;;;;;;;;;;;;;;5059989;28;1227;-77
2022/10/05 15:26:02;;;;;;;;;;;;;;;;;;5051134;28;1370;-77
2022/10/05 15:28:31;;;;;;;;;;;;;;;;;;5051973;28;1419;-77
2022/10/05 15:31:00;;;;;;;;;;;;;;;;;;5050663;28;1171;-77
2022/10/05 15:33:27;;;;;;;;;;;;;;;;;;5054790;28;956;-79
2022/10/05 15:36:03;;;;;;;;;;;;;;;;;;5071223;28;1072;-77
2022/10/05 15:38:30;;;;;;;;;;;;;;;;;;5070060;28;1918;-76
2022/10/05 15:41:04;;;;;;;;;;;;;;;;;;5071865;28;952;-78
2022/10/05 15:43:34;;;;;;;;;;;;;;;;;;5072711;28;951;-78
2022/10/05 15:46:03;;;;;;;;;;;;;;;;;;5063990;28;1482;-79
2022/10/05 15:48:34;;;;;;;;;;;;;;;;;;5054296;28;1427;-77
2022/10/05 15:51:04;;;;;;;;;;;;;;;;;;5051236;28;1215;-77
2022/10/05 15:53:32;;;;;;;;;;;;;;;;;;5054504;28;1427;-77
2022/10/05 15:55:58;;;;;;;;;;;;;;;;;;5065092;28;1582;-77
2022/10/05 15:58:40;;;;;;;;;;;;;;;;;;5048529;28;1975;-77
2022/10/05 16:01:08;;;;;;;;;;;;;;;;;;5052387;28;806;-77
2022/10/05 16:03:38;;;;;;;;;;;;;;;;;;5054003;28;1379;-77
2022/10/05 16:08:55;;;;;;;;;;;;;;;;;;5065281;28;1118;-77
2022/10/05 16:11:28;;;;;;;;;;;;;;;;;;5059297;28;1433;-76
2022/10/05 16:13:58;;;;;;;;;;;;;;;;;;5052831;28;1586;-76
2022/10/05 16:16:24;;;;;;;;;;;;;;;;;;5061134;28;1439;-76
2022/10/05 16:18:53;;;;;;;;;;;;;;;;;;5061702;28;1910;-76
2022/10/05 16:21:22;;;;;;;;;;;;;;;;;;5058583;28;1283;-76
2022/10/05 16:23:52;;;;;;;;;;;;;;;;;;5055424;28;1316;-77
2022/10/05 16:26:20;;;;;;;;;;;;;;;;;;5058130;28;1361;-77
2022/10/05 16:28:49;;;;;;;;;;;;;;;;;;5049915;28;1004;-77
2022/10/05 16:31:18;;;;;;;;;;;;;;;;;;5052121;28;1450;-76
2022/10/05 16:33:53;;;;;;;;;;;;;;;;;;5056033;28;1181;-76
2022/10/05 16:36:21;;;;;;;;;;;;;;;;;;5069391;28;1345;-77
2022/10/05 16:38:48;;;;;;;;;;;;;;;;;;5065141;28;1922;-77
2022/10/05 16:41:16;;;;;;;;;;;;;;;;;;5065233;28;1244;-76
2022/10/05 16:43:44;;;;;;;;;;;;;;;;;;5056734;28;1358;-77
2022/10/05 16:46:12;;;;;;;;;;;;;;;;;;5049815;28;1146;-77
2022/10/05 16:48:43;;;;;;;;;;;;;;;;;;5048519;28;1211;-76
2022/10/05 16:51:13;;;;;;;;;;;;;;;;;;5049580;28;992;-77
2022/10/05 16:53:40;;;;;;;;;;;;;;;;;;5055639;28;1402;-75
2022/10/05 16:56:07;;;;;;;;;;;;;;;;;;5045911;28;1123;-76
2022/10/05 16:58:36;;;;;;;;;;;;;;;;;;5063253;28;1914;-76
2022/10/05 17:01:08;;;;;;;;;;;;;;;;;;5066710;28;1423;-76
2022/10/05 17:03:41;;;;;;;;;;;;;;;;;;5065587;28;1305;-75
2022/10/05 17:06:11;;;;;;;;;;;;;;;;;;5049642;28;1252;-76
2022/10/05 17:08:44;;;;;;;;;;;;;;;;;;5050639;28;1060;-77
2022/10/05 17:11:12;;;;;;;;;;;;;;;;;;5052043;28;1402;-77
2022/10/05 17:13:46;;;;;;;;;;;;;;;;;;5059727;28;1654;-77
2022/10/05 17:16:14;;;;;;;;;;;;;;;;;;5065901;28;1479;-77
2022/10/05 17:18:53;;;;;;;;;;;;;;;;;;5056329;28;1910;-77
2022/10/05 17:21:22;;;;;;;;;;;;;;;;;;5069210;28;1012;-77
2022/10/05 17:23:53;;;;;;;;;;;;;;;;;;5070287;28;881;-77
2022/10/05 17:26:32;;;;;;;;;;;;;;;;;;5057362;28;1406;-77
2022/10/05 17:28:59;;;;;;;;;;;;;;;;;;5066049;28;1146;-76
2022/10/05 17:31:25;;;;;;;;;;;;;;;;;;5071016;28;1111;-77
2022/10/05 17:34:03;;;;;;;;;;;;;;;;;;5062794;28;1519;-77